createdAt,value
2022-10-11T00:01:55.331Z,57923.66
2022-10-11T00:04:21.757Z,57919.53
2022-10-11T00:06:51.343Z,57940.22
2022-10-11T00:09:19.689Z,57871.91
2022-10-11T00:11:46.117Z,57820.19
2022-10-11T00:14:15.507Z,57787.06
2022-10-11T00:16:45.537Z,57907.09
2022-10-11T00:19:11.964Z,57909.16
2022-10-11T00:21:39.273Z,57745.66
2022-10-11T00:24:06.278Z,57857.44
2022-10-11T00:26:32.761Z,57878.13
2022-10-11T00:29:01.287Z,57929.88
2022-10-11T00:31:29.939Z,57902.97
2022-10-11T00:34:02.843Z,57758.09
2022-10-11T00:36:29.330Z,57940.22
2022-10-11T00:38:55.775Z,58290.03
2022-10-11T00:41:24.399Z,58087.19
2022-10-11T00:44:15.221Z,57909.16
2022-10-11T00:46:44.655Z,57869.84
2022-10-11T00:49:39.053Z,57878.13
2022-10-11T00:52:22.758Z,57845.00
2022-10-11T00:54:52.127Z,57845.00
2022-10-11T00:57:20.163Z,57807.75
2022-10-11T00:59:51.127Z,57869.84
2022-10-11T01:02:18.532Z,57824.31
2022-10-11T01:04:45.230Z,57861.56
2022-10-11T01:07:15.088Z,57842.94
2022-10-11T01:09:41.479Z,57789.13
2022-10-11T01:12:19.123Z,57859.50
2022-10-11T01:14:56.633Z,57609.06
2022-10-11T01:17:39.891Z,57820.19
2022-10-11T01:20:25.060Z,57820.19
2022-10-11T01:23:15.966Z,57830.53
2022-10-11T01:26:18.423Z,57828.44
2022-10-11T01:28:50.696Z,57871.91
2022-10-11T01:31:28.772Z,57797.41
2022-10-11T01:34:08.066Z,58064.41
2022-10-11T01:36:42.439Z,57828.44
2022-10-11T01:39:10.238Z,57836.72
2022-10-11T01:41:44.038Z,57838.81
2022-10-11T01:44:11.153Z,57805.69
2022-10-11T01:46:40.864Z,57805.69
2022-10-11T01:49:07.519Z,57803.63
2022-10-11T01:51:49.383Z,57830.53
2022-10-11T01:55:07.991Z,57818.09
2022-10-11T01:57:51.929Z,57813.97
2022-10-11T02:00:20.925Z,57820.19
2022-10-11T02:02:56.028Z,57840.88
2022-10-11T02:05:40.222Z,57789.13
2022-10-11T02:08:08.181Z,57803.63
2022-10-11T02:10:51.510Z,57753.94
2022-10-11T02:13:26.892Z,57818.09
2022-10-11T02:15:56.521Z,57934.00
2022-10-11T02:18:32.052Z,57650.47
2022-10-11T02:21:03.599Z,58151.34
2022-10-11T02:23:33.895Z,57830.53
2022-10-11T02:26:04.492Z,57720.84
2022-10-11T02:28:36.577Z,57745.66
2022-10-11T02:31:06.036Z,57731.19
2022-10-11T02:34:16.947Z,57780.84
2022-10-11T02:37:09.734Z,57828.44
2022-10-11T02:39:50.760Z,57780.84
2022-10-11T02:42:26.911Z,57801.53
2022-10-11T02:45:01.314Z,57747.72
2022-10-11T02:47:32.073Z,57729.09
2022-10-11T02:49:59.474Z,57696.00
2022-10-11T02:52:26.067Z,57600.78
2022-10-11T02:54:52.510Z,58072.69
2022-10-11T02:57:18.912Z,57760.16
2022-10-11T02:59:45.472Z,58060.25
2022-10-11T03:02:12.096Z,57764.28
2022-10-11T03:04:38.730Z,57741.53
2022-10-11T03:07:05.596Z,57727.03
2022-10-11T03:09:31.992Z,57758.09
2022-10-11T03:11:58.351Z,57710.47
2022-10-11T03:14:27.815Z,58010.59
2022-10-11T03:16:54.357Z,57820.19
2022-10-11T03:19:20.755Z,57662.88
2022-10-11T03:21:47.269Z,57722.91
2022-10-11T03:24:13.715Z,57712.56
2022-10-11T03:26:40.143Z,57648.41
2022-10-11T03:29:07.513Z,57716.69
2022-10-11T03:31:34.040Z,57731.19
2022-10-11T03:34:00.471Z,57656.66
2022-10-11T03:36:26.907Z,57673.22
2022-10-11T03:38:53.341Z,57607.00
2022-10-11T03:41:19.722Z,57664.94
2022-10-11T03:43:46.193Z,57683.56
2022-10-11T03:46:15.820Z,57658.75
2022-10-11T03:48:42.552Z,58045.78
2022-10-11T03:51:11.194Z,57739.47
2022-10-11T03:53:37.712Z,57704.28
2022-10-11T03:56:08.281Z,57631.84
2022-10-11T03:58:35.022Z,57673.22
2022-10-11T04:01:02.863Z,57675.28
2022-10-11T04:03:29.895Z,57698.06
2022-10-11T04:05:56.326Z,57865.72
2022-10-11T04:08:22.704Z,57631.84
2022-10-11T04:10:49.241Z,57648.41
2022-10-11T04:13:15.824Z,57652.53
2022-10-11T04:15:45.089Z,57584.25
2022-10-11T04:18:11.950Z,57685.66
2022-10-11T04:20:40.362Z,57673.22
2022-10-11T04:23:07.126Z,57675.28
2022-10-11T04:25:33.529Z,57621.50
2022-10-11T04:27:59.933Z,57640.13
2022-10-11T04:30:26.331Z,57621.50
2022-10-11T04:32:52.741Z,57994.03
2022-10-11T04:35:21.640Z,57650.47
2022-10-11T04:37:51.027Z,57696.00
2022-10-11T04:40:19.556Z,57658.75
2022-10-11T04:42:46.101Z,57658.75
2022-10-11T04:45:12.513Z,57675.28
2022-10-11T04:47:40.392Z,57638.03
2022-10-11T04:50:07.065Z,57656.66
2022-10-11T04:52:33.564Z,57702.19
2022-10-11T04:54:59.997Z,57631.84
2022-10-11T04:57:26.551Z,57549.06
2022-10-11T04:59:52.957Z,57720.84
2022-10-11T05:02:19.447Z,57679.44
2022-10-11T05:04:46.151Z,57658.75
2022-10-11T05:07:12.594Z,57633.91
2022-10-11T05:09:38.971Z,57609.06
2022-10-11T05:12:05.880Z,57619.41
2022-10-11T05:14:32.306Z,57578.03
2022-10-11T05:16:58.718Z,57602.88
2022-10-11T05:19:25.227Z,57662.88
2022-10-11T05:21:51.632Z,57640.13
2022-10-11T05:24:18.038Z,57658.75
2022-10-11T05:26:44.476Z,57687.72
2022-10-11T05:29:10.874Z,57621.50
2022-10-11T05:31:37.312Z,57567.69
2022-10-11T05:34:03.729Z,57654.59
2022-10-11T05:36:30.119Z,57677.38
2022-10-11T05:38:56.526Z,57704.28
2022-10-11T05:41:23.000Z,57687.72
2022-10-11T05:43:49.466Z,57604.94
2022-10-11T05:46:16.465Z,57644.25
2022-10-11T05:48:42.871Z,57675.28
2022-10-11T05:51:10.955Z,57687.72
2022-10-11T05:53:38.935Z,57687.72
2022-10-11T05:56:06.501Z,57729.09
2022-10-11T05:58:33.098Z,57706.34
2022-10-11T06:00:59.598Z,57650.47
2022-10-11T06:03:26.293Z,57598.72
2022-10-11T06:06:03.232Z,57675.28
2022-10-11T06:08:30.636Z,57693.94
2022-10-11T06:10:57.195Z,57712.56
2022-10-11T06:13:23.614Z,57685.66
2022-10-11T06:15:50.126Z,57718.75
2022-10-11T06:18:16.544Z,57696.00
2022-10-11T06:20:42.964Z,57716.69
2022-10-11T06:23:09.395Z,57764.28
2022-10-11T06:25:35.786Z,57708.41
2022-10-11T06:28:02.750Z,58114.09
2022-10-11T06:30:29.224Z,57724.97
2022-10-11T06:32:55.671Z,57826.38
2022-10-11T06:35:22.123Z,58064.41
2022-10-11T06:37:48.571Z,58223.78
2022-10-11T06:40:15.092Z,57890.53
2022-10-11T06:42:41.507Z,58027.16
2022-10-11T06:45:08.244Z,57880.19
2022-10-11T06:47:34.657Z,57898.81
2022-10-11T06:50:01.125Z,57969.19
2022-10-11T06:52:27.605Z,57913.31
2022-10-11T06:54:54.131Z,58025.09
2022-10-11T06:57:20.565Z,57863.63
2022-10-11T06:59:46.971Z,58004.38
2022-10-11T07:02:13.489Z,58080.97
2022-10-11T07:04:40.208Z,58047.84
2022-10-11T07:07:06.674Z,58016.81
2022-10-11T07:09:34.247Z,58103.72
2022-10-11T07:12:00.640Z,58201.00
2022-10-11T07:14:27.173Z,58080.97
2022-10-11T07:16:53.599Z,58112.00
2022-10-11T07:19:20.038Z,58188.59
2022-10-11T07:21:46.436Z,58244.47
2022-10-11T07:24:12.844Z,58271.41
2022-10-11T07:26:39.457Z,58350.06
2022-10-11T07:29:09.995Z,58319.00
2022-10-11T07:31:37.947Z,58437.00
2022-10-11T07:34:04.685Z,58672.97
2022-10-11T07:36:31.166Z,58437.00
2022-10-11T07:38:57.611Z,58463.91
2022-10-11T07:41:24.071Z,58474.25
2022-10-11T07:43:50.994Z,58600.53
2022-10-11T07:46:18.500Z,58445.28
2022-10-11T07:48:45.047Z,58350.06
2022-10-11T07:51:18.590Z,58540.50
2022-10-11T07:53:47.206Z,58809.59
2022-10-11T07:56:17.855Z,58552.91
2022-10-11T07:58:44.580Z,58594.31
2022-10-11T08:01:11.472Z,58672.97
2022-10-11T08:03:38.653Z,58718.53
2022-10-11T08:06:08.309Z,58774.41
2022-10-11T08:08:35.813Z,58809.59
2022-10-11T08:11:02.341Z,58805.47
2022-10-11T08:13:28.803Z,58863.44
2022-10-11T08:15:55.749Z,59298.22
2022-10-11T08:18:24.100Z,59049.75
2022-10-11T08:20:50.978Z,59138.78
2022-10-11T08:23:18.474Z,59213.31
2022-10-11T08:25:46.701Z,59304.41
2022-10-11T08:28:17.956Z,58969.03
2022-10-11T08:30:53.086Z,59362.41
2022-10-11T08:33:21.650Z,59439.00
2022-10-11T08:35:49.068Z,59424.50
2022-10-11T08:38:15.592Z,59499.06
2022-10-11T08:40:50.553Z,59507.34
2022-10-11T08:43:43.946Z,59523.91
2022-10-11T08:46:11.050Z,59795.16
2022-10-11T08:48:41.957Z,59695.75
2022-10-11T08:51:52.173Z,59681.25
2022-10-11T08:54:49.530Z,59737.16
2022-10-11T08:57:25.092Z,59755.81
2022-10-11T08:59:56.130Z,59793.09
2022-10-11T09:02:49.173Z,59826.22
2022-10-11T09:05:17.927Z,59875.91
2022-10-11T09:07:47.329Z,59950.47
2022-10-11T09:10:53.366Z,60070.56
2022-10-11T09:13:41.614Z,60259.03
2022-10-11T09:16:11.042Z,60412.28
2022-10-11T09:19:06.133Z,60410.19
2022-10-11T09:21:44.708Z,60493.03
2022-10-11T09:24:23.862Z,60667.03
2022-10-11T09:26:59.547Z,60760.22
2022-10-11T09:29:44.170Z,60809.94
2022-10-11T09:32:21.190Z,60863.78
2022-10-11T09:34:59.544Z,60872.06
2022-10-11T09:37:37.851Z,61012.94
2022-10-11T09:40:17.241Z,60998.44
2022-10-11T09:42:43.648Z,61073.00
2022-10-11T09:45:17.836Z,61112.34
2022-10-11T09:47:44.384Z,61497.66
2022-10-11T09:50:22.222Z,61350.56
2022-10-11T09:53:00.096Z,61305.00
2022-10-11T09:55:46.468Z,61423.06
2022-10-11T09:58:39.423Z,61286.34
2022-10-11T10:01:22.991Z,61203.50
2022-10-11T10:04:10.205Z,61431.34
2022-10-11T10:06:37.176Z,61247.00
2022-10-11T10:09:25.128Z,61290.50
2022-10-11T10:11:52.163Z,61143.41
2022-10-11T10:14:27.297Z,61296.72
2022-10-11T10:17:05.688Z,61385.78
2022-10-11T10:19:50.829Z,61280.13
2022-10-11T10:22:27.354Z,61617.81
2022-10-11T10:24:54.914Z,61520.44
2022-10-11T10:27:26.897Z,61381.63
2022-10-11T10:30:08.818Z,61599.16
2022-10-11T10:32:50.806Z,61603.31
2022-10-11T10:35:33.794Z,61779.41
2022-10-11T10:38:02.850Z,61764.91
2022-10-11T10:40:50.419Z,61897.50
2022-10-11T10:43:19.764Z,61650.94
2022-10-11T10:46:05.337Z,62019.72
2022-10-11T10:49:19.106Z,61897.50
2022-10-11T10:52:09.035Z,61974.16
2022-10-11T10:54:39.418Z,62001.09
2022-10-11T10:57:19.985Z,62034.22
2022-10-11T11:00:04.155Z,62156.47
2022-10-11T11:03:01.204Z,61970.00
2022-10-11T11:05:55.037Z,61746.25
2022-10-11T11:08:40.239Z,61754.53
2022-10-11T11:11:15.741Z,61576.38
2022-10-11T11:13:53.958Z,61126.84
2022-10-11T11:16:26.714Z,61128.91
2022-10-11T11:19:14.989Z,60696.03
2022-10-11T11:21:48.615Z,60756.09
2022-10-11T11:24:33.324Z,61081.28
2022-10-11T11:27:37.309Z,61234.56
2022-10-11T11:30:09.461Z,61584.66
2022-10-11T11:32:57.482Z,61418.94
2022-10-11T11:35:48.949Z,61226.28
2022-10-11T11:38:45.116Z,61234.56
2022-10-11T11:41:20.000Z,61505.94
2022-10-11T11:43:57.070Z,61684.09
2022-10-11T11:46:55.488Z,61827.06
2022-10-11T11:49:31.149Z,61653.03
2022-10-11T11:51:58.649Z,61779.41
2022-10-11T11:54:48.520Z,61758.69
2022-10-11T11:57:39.834Z,61926.50
2022-10-11T12:00:14.313Z,61947.22
2022-10-11T12:02:44.435Z,61522.50
2022-10-11T12:05:13.462Z,61503.88
2022-10-11T12:08:24.290Z,61476.94
2022-10-11T12:10:50.570Z,61153.78
2022-10-11T12:13:32.141Z,61006.72
2022-10-11T12:16:10.151Z,61126.84
2022-10-11T12:18:56.706Z,61087.50
2022-10-11T12:21:36.264Z,61383.72
2022-10-11T12:24:13.234Z,61512.16
2022-10-11T12:26:48.583Z,61686.16
2022-10-11T12:29:41.442Z,61617.81
2022-10-11T12:32:08.968Z,61702.75
2022-10-11T12:34:36.409Z,61464.50
2022-10-11T12:37:32.124Z,61634.38
2022-10-11T12:39:59.587Z,61713.09
2022-10-11T12:42:34.205Z,61665.44
2022-10-11T12:45:13.029Z,61638.53
2022-10-11T12:47:52.246Z,61860.19
2022-10-11T12:50:29.203Z,61746.25
2022-10-11T12:53:11.630Z,61769.03
2022-10-11T12:55:56.025Z,61920.28
2022-10-11T12:58:46.590Z,61769.03
2022-10-11T13:01:17.515Z,61936.84
2022-10-11T13:03:47.070Z,61980.38
2022-10-11T13:06:19.829Z,62019.72
2022-10-11T13:08:54.508Z,61601.22
2022-10-11T13:11:43.033Z,61416.84
2022-10-11T13:14:19.573Z,61383.72
2022-10-11T13:16:50.746Z,61646.81
2022-10-11T13:19:17.620Z,61721.38
2022-10-11T13:21:50.598Z,61802.19
2022-10-11T13:24:19.189Z,61750.41
2022-10-11T13:26:48.187Z,61501.78
2022-10-11T13:29:16.363Z,61230.41
2022-10-11T13:31:45.653Z,61392.00
2022-10-11T13:34:12.673Z,61671.66
2022-10-11T13:36:39.214Z,61762.81
2022-10-11T13:39:05.730Z,61545.28
2022-10-11T13:41:32.567Z,61491.44
2022-10-11T13:43:59.957Z,61708.97
2022-10-11T13:46:28.111Z,61590.88
2022-10-11T13:49:06.644Z,61715.19
2022-10-11T13:51:35.010Z,61508.00
2022-10-11T13:54:09.448Z,61760.75
2022-10-11T13:56:46.091Z,61688.25
2022-10-11T13:59:24.892Z,61684.09
2022-10-11T14:01:58.345Z,61626.09
2022-10-11T14:04:29.508Z,61824.97
2022-10-11T14:07:02.493Z,61835.34
2022-10-11T14:09:30.950Z,62177.19
2022-10-11T14:12:22.946Z,62023.88
2022-10-11T14:14:49.356Z,62123.31
2022-10-11T14:17:31.913Z,61791.84
2022-10-11T14:20:20.399Z,61671.66
2022-10-11T14:22:47.166Z,61659.25
2022-10-11T14:25:13.990Z,61684.09
2022-10-11T14:27:42.410Z,61675.81
2022-10-11T14:30:27.286Z,61512.16
2022-10-11T14:32:56.653Z,60886.56
2022-10-11T14:35:31.628Z,60888.66
2022-10-11T14:37:58.491Z,60696.03
2022-10-11T14:40:27.595Z,60548.97
2022-10-11T14:42:54.928Z,60457.84
2022-10-11T14:45:21.460Z,60488.91
2022-10-11T14:47:48.296Z,60250.75
2022-10-11T14:50:35.363Z,60225.88
2022-10-11T14:53:02.898Z,60132.69
2022-10-11T14:55:29.992Z,60064.34
2022-10-11T14:57:56.822Z,60182.41
2022-10-11T15:00:26.403Z,59973.25
2022-10-11T15:02:53.287Z,59886.25
2022-10-11T15:05:20.997Z,60114.06
2022-10-11T15:07:47.757Z,59857.28
2022-10-11T15:10:29.640Z,60056.06
2022-10-11T15:12:56.945Z,60219.66
2022-10-11T15:15:25.797Z,60505.47
2022-10-11T15:17:57.300Z,60725.00
2022-10-11T15:20:30.102Z,60907.28
2022-10-11T15:22:57.691Z,60979.78
2022-10-11T15:25:24.818Z,61170.34
2022-10-11T15:27:51.699Z,61145.50
2022-10-11T15:30:26.864Z,61199.34
2022-10-11T15:32:53.500Z,61141.34
2022-10-11T15:35:21.272Z,61102.00
2022-10-11T15:37:47.673Z,61166.22
2022-10-11T15:40:30.927Z,61126.84
2022-10-11T15:42:57.534Z,60996.34
2022-10-11T15:45:24.344Z,60884.50
2022-10-11T15:47:51.299Z,60797.50
2022-10-11T15:50:36.752Z,60677.38
2022-10-11T15:53:06.963Z,60426.78
2022-10-11T15:55:35.773Z,60248.66
2022-10-11T15:58:02.313Z,59989.81
2022-10-11T16:00:29.387Z,59929.75
2022-10-11T16:02:56.900Z,59803.44
2022-10-11T16:05:25.352Z,59697.81
2022-10-11T16:07:53.087Z,59619.16
2022-10-11T16:10:20.063Z,59770.31
2022-10-11T16:12:46.488Z,59463.84
2022-10-11T16:15:13.580Z,59710.25
2022-10-11T16:17:39.969Z,59294.06
2022-10-11T16:20:07.455Z,59428.66
2022-10-11T16:22:34.918Z,59370.69
2022-10-11T16:25:02.267Z,59130.50
2022-10-11T16:27:28.755Z,59070.47
2022-10-11T16:29:55.134Z,59037.34
2022-10-11T16:32:22.119Z,58995.94
2022-10-11T16:34:48.645Z,58904.84
2022-10-11T16:37:15.079Z,58857.22
2022-10-11T16:39:41.597Z,58848.94
2022-10-11T16:42:08.188Z,58842.72
2022-10-11T16:44:34.570Z,58824.09
2022-10-11T16:47:00.945Z,58764.06
2022-10-11T16:49:28.170Z,58745.44
2022-10-11T16:51:56.541Z,58710.25
2022-10-11T16:54:22.983Z,58689.53
2022-10-11T16:56:49.990Z,58623.28
2022-10-11T16:59:16.745Z,58652.28
2022-10-11T17:01:43.333Z,58583.97
2022-10-11T17:04:09.739Z,58542.56
2022-10-11T17:06:40.176Z,58590.19
2022-10-11T17:09:06.987Z,58530.13
2022-10-11T17:11:33.581Z,58567.41
2022-10-11T17:14:00.508Z,58523.94
2022-10-11T17:16:27.103Z,58697.81
2022-10-11T17:18:53.623Z,58515.66
2022-10-11T17:21:21.198Z,58492.88
2022-10-11T17:23:48.999Z,58552.91
2022-10-11T17:26:19.412Z,58449.41
2022-10-11T17:28:46.052Z,58296.22
2022-10-11T17:31:12.554Z,58805.47
2022-10-11T17:33:39.066Z,58410.09
2022-10-11T17:36:34.382Z,58420.44
2022-10-11T17:39:02.756Z,58350.06
2022-10-11T17:41:32.118Z,58358.34
2022-10-11T17:43:59.333Z,58319.00
2022-10-11T17:46:27.559Z,58306.59
2022-10-11T17:48:55.519Z,58321.06
2022-10-11T17:51:22.609Z,58306.59
2022-10-11T17:53:50.830Z,58271.41
2022-10-11T17:56:28.143Z,58254.84
2022-10-11T17:58:56.800Z,58523.94
2022-10-11T18:01:25.265Z,58227.94
2022-10-11T18:03:55.062Z,58186.53
2022-10-11T18:06:21.670Z,58252.75
2022-10-11T18:08:48.051Z,58223.78
2022-10-11T18:11:19.947Z,58240.34
2022-10-11T18:13:52.114Z,58176.19
2022-10-11T18:16:21.116Z,58240.34
2022-10-11T18:18:47.694Z,58205.16
2022-10-11T18:21:14.442Z,58165.81
2022-10-11T18:23:41.149Z,58155.47
2022-10-11T18:26:12.771Z,58207.22
2022-10-11T18:28:40.594Z,58258.97
2022-10-11T18:31:13.646Z,58169.97
2022-10-11T18:33:41.501Z,58169.97
2022-10-11T18:36:09.171Z,58182.38
2022-10-11T18:38:35.981Z,58143.06
2022-10-11T18:41:10.446Z,58128.56
2022-10-11T18:43:37.163Z,58122.38
2022-10-11T18:46:12.649Z,58138.91
2022-10-11T18:48:43.834Z,58130.63
2022-10-11T18:51:14.006Z,58093.38
2022-10-11T18:53:41.083Z,58072.69
2022-10-11T18:56:09.204Z,58056.13
2022-10-11T18:58:37.092Z,58451.47
2022-10-11T19:01:05.423Z,58052.00
2022-10-11T19:03:35.160Z,58016.81
2022-10-11T19:06:07.211Z,58037.50
2022-10-11T19:08:34.020Z,58056.13
2022-10-11T19:11:07.442Z,58041.63
2022-10-11T19:13:34.960Z,58072.69
2022-10-11T19:16:06.114Z,58058.19
2022-10-11T19:18:34.130Z,58031.28
2022-10-11T19:21:04.907Z,58008.53
2022-10-11T19:23:32.845Z,57981.63
2022-10-11T19:26:01.532Z,58401.81
2022-10-11T19:28:29.140Z,57991.97
2022-10-11T19:31:03.802Z,57996.09
2022-10-11T19:33:36.604Z,57909.16
2022-10-11T19:36:06.643Z,57973.34
2022-10-11T19:38:34.595Z,57969.19
2022-10-11T19:41:04.547Z,57847.06
2022-10-11T19:43:31.994Z,57956.78
2022-10-11T19:46:01.968Z,57991.97
2022-10-11T19:48:28.602Z,57948.50
2022-10-11T19:51:12.215Z,58107.88
2022-10-11T19:53:39.198Z,57925.72
2022-10-11T19:56:08.456Z,57896.75
2022-10-11T19:58:37.239Z,57886.41
2022-10-11T20:01:07.196Z,57892.63
2022-10-11T20:03:33.944Z,57919.53
2022-10-11T20:06:05.479Z,57960.91
2022-10-11T20:08:32.306Z,57894.69
2022-10-11T20:10:59.769Z,57911.25
2022-10-11T20:13:31.160Z,57882.25
2022-10-11T20:16:03.279Z,57931.94
2022-10-11T20:18:30.108Z,57874.00
2022-10-11T20:20:59.223Z,58074.75
2022-10-11T20:23:27.761Z,57853.28
2022-10-11T20:26:01.549Z,57859.50
2022-10-11T20:28:28.927Z,57911.25
2022-10-11T20:30:55.521Z,57882.25
2022-10-11T20:33:22.211Z,57853.28
2022-10-11T20:35:58.510Z,57886.41
2022-10-11T20:38:25.343Z,57869.84
2022-10-11T20:40:51.733Z,57871.91
2022-10-11T20:43:18.110Z,58116.16
2022-10-11T20:45:44.587Z,57853.28
2022-10-11T20:48:11.245Z,58066.47
2022-10-11T20:50:37.609Z,57859.50
2022-10-11T20:53:04.033Z,57861.56
2022-10-11T20:55:30.504Z,58058.19
2022-10-11T20:57:56.906Z,57785.00
2022-10-11T21:00:23.286Z,57801.53
2022-10-11T21:02:51.141Z,57855.34
2022-10-11T21:05:17.563Z,57861.56
2022-10-11T21:07:44.434Z,57874.00
2022-10-11T21:10:13.135Z,57801.53
2022-10-11T21:12:39.511Z,57787.06
2022-10-11T21:15:06.475Z,57911.25
2022-10-11T21:17:32.899Z,57865.72
2022-10-11T21:20:01.838Z,57832.59
2022-10-11T21:22:28.205Z,57791.19
2022-10-11T21:24:54.594Z,57811.91
2022-10-11T21:27:20.990Z,57780.84
2022-10-11T21:29:47.433Z,57898.81
2022-10-11T21:32:14.615Z,57845.00
2022-10-11T21:34:41.214Z,57753.94
2022-10-11T21:37:10.016Z,57667.03
2022-10-11T21:39:36.477Z,57762.22
2022-10-11T21:42:02.852Z,57770.50
2022-10-11T21:44:31.919Z,57762.22
2022-10-11T21:47:07.208Z,57638.03
2022-10-11T21:49:34.217Z,57741.53
2022-10-11T21:52:00.677Z,57789.13
2022-10-11T21:54:27.046Z,57712.56
2022-10-11T21:56:53.492Z,57931.94
2022-10-11T21:59:19.891Z,57727.03
2022-10-11T22:01:46.366Z,57735.31
2022-10-11T22:04:12.843Z,57751.88
2022-10-11T22:06:39.942Z,57729.09
2022-10-11T22:09:07.564Z,57729.09
2022-10-11T22:11:34.307Z,57691.84
2022-10-11T22:14:01.033Z,57741.53
2022-10-11T22:16:27.458Z,57681.50
2022-10-11T22:18:54.064Z,57675.28
2022-10-11T22:21:22.385Z,57704.28
2022-10-11T22:23:50.036Z,57712.56
2022-10-11T22:26:19.947Z,57727.03
2022-10-11T22:28:46.778Z,58072.69
2022-10-11T22:31:13.992Z,57741.53
2022-10-11T22:33:40.430Z,57985.75
2022-10-11T22:36:11.870Z,57704.28
2022-10-11T22:38:40.108Z,57741.53
2022-10-11T22:41:06.984Z,57758.09
2022-10-11T22:43:33.678Z,57691.84
2022-10-11T22:46:00.173Z,57720.84
2022-10-11T22:48:26.784Z,57718.75
2022-10-11T22:50:54.062Z,57679.44
2022-10-11T22:53:20.550Z,57708.41
2022-10-11T22:55:47.629Z,57938.16
2022-10-11T22:58:14.415Z,57712.56
2022-10-11T23:00:40.879Z,57633.91
2022-10-11T23:03:07.381Z,57704.28
2022-10-11T23:05:34.680Z,57650.47
2022-10-11T23:08:01.058Z,57708.41
2022-10-11T23:10:27.617Z,57737.38
2022-10-11T23:12:53.990Z,57691.84
2022-10-11T23:15:20.380Z,57712.56
2022-10-11T23:17:46.805Z,57691.84
2022-10-11T23:20:13.217Z,57675.28
2022-10-11T23:22:39.589Z,57656.66
2022-10-11T23:25:06.594Z,57671.16
2022-10-11T23:27:32.957Z,57689.78
2022-10-11T23:29:59.323Z,57741.53
2022-10-11T23:32:25.690Z,57778.78
2022-10-11T23:34:52.059Z,57714.63
2022-10-11T23:37:18.416Z,57731.19
2022-10-11T23:39:45.181Z,57712.56
2022-10-11T23:42:11.583Z,57704.28
2022-10-11T23:44:38.013Z,57704.28
2022-10-11T23:47:04.415Z,57704.28
2022-10-11T23:49:30.779Z,57646.31
2022-10-11T23:51:57.248Z,57706.34
2022-10-11T23:54:23.705Z,57693.94
2022-10-11T23:56:50.067Z,57996.09
2022-10-11T23:59:16.434Z,57720.84
